createdAt,value
2019-02-25T00:00:14.546Z,9.60
2019-02-25T00:02:42.869Z,10.90
2019-02-25T00:05:12.063Z,10.37
2019-02-25T00:07:40.374Z,10.47
2019-02-25T00:10:09.744Z,11.30
2019-02-25T00:12:38.041Z,10.50
2019-02-25T00:15:08.313Z,10.13
2019-02-25T00:17:39.405Z,11.83
2019-02-25T00:20:11.333Z,10.68
2019-02-25T00:22:39.637Z,11.20
2019-02-25T00:25:11.511Z,11.63
2019-02-25T00:27:39.823Z,9.97
2019-02-25T00:30:11.358Z,11.07
2019-02-25T00:32:39.664Z,11.43
2019-02-25T00:35:08.141Z,11.57
2019-02-25T00:37:36.618Z,10.38
2019-02-25T00:40:06.370Z,9.83
2019-02-25T00:42:35.199Z,10.27
2019-02-25T00:45:06.364Z,10.70
2019-02-25T00:47:34.673Z,10.10
2019-02-25T00:50:03.973Z,9.67
2019-02-25T00:52:32.432Z,8.80
2019-02-25T00:55:00.784Z,9.00
2019-02-25T00:57:29.088Z,8.58
2019-02-25T00:59:57.461Z,8.38
2019-02-25T01:02:25.821Z,8.40
2019-02-25T01:04:54.212Z,8.67
2019-02-25T01:07:22.577Z,8.93
2019-02-25T01:09:51.010Z,8.57
2019-02-25T01:12:19.403Z,8.60
2019-02-25T01:14:47.785Z,8.30
2019-02-25T01:17:16.147Z,7.43
2019-02-25T01:19:44.472Z,7.80
2019-02-25T01:22:12.812Z,8.60
2019-02-25T01:24:41.129Z,7.12
2019-02-25T01:27:09.484Z,7.93
2019-02-25T01:29:37.811Z,8.50
2019-02-25T01:32:06.176Z,7.70
2019-02-25T01:34:34.510Z,7.20
2019-02-25T01:37:02.887Z,7.80
2019-02-25T01:39:31.235Z,7.65
2019-02-25T01:41:59.706Z,6.85
2019-02-25T01:44:28.041Z,7.07
2019-02-25T01:46:56.492Z,7.47
2019-02-25T01:49:24.834Z,7.15
2019-02-25T01:51:53.625Z,8.00
2019-02-25T01:54:21.936Z,7.10
2019-02-25T01:56:50.269Z,6.77
2019-02-25T01:59:18.588Z,6.67
2019-02-25T02:01:46.924Z,7.13
2019-02-25T02:04:15.282Z,7.73
2019-02-25T02:06:43.681Z,7.40
2019-02-25T02:09:12.866Z,6.23
2019-02-25T02:11:41.230Z,6.95
2019-02-25T02:14:10.013Z,6.77
2019-02-25T02:16:38.332Z,6.60
2019-02-25T02:19:06.700Z,7.20
2019-02-25T02:21:35.141Z,6.43
2019-02-25T02:24:03.525Z,6.50
2019-02-25T02:26:32.904Z,6.63
2019-02-25T02:29:01.257Z,6.50
2019-02-25T02:31:29.594Z,7.75
2019-02-25T02:33:57.964Z,6.50
2019-02-25T02:36:26.280Z,7.63
2019-02-25T02:38:54.631Z,6.67
2019-02-25T02:41:22.964Z,7.57
2019-02-25T02:43:51.310Z,7.70
2019-02-25T02:46:24.478Z,6.97
2019-02-25T02:48:56.457Z,6.90
2019-02-25T02:51:24.792Z,6.83
2019-02-25T02:53:53.146Z,7.03
2019-02-25T02:56:21.669Z,7.70
2019-02-25T02:58:49.990Z,6.92
2019-02-25T03:01:18.339Z,7.08
2019-02-25T03:03:47.644Z,6.95
2019-02-25T03:06:16.020Z,7.27
2019-02-25T03:08:44.377Z,6.50
2019-02-25T03:11:12.783Z,6.83
2019-02-25T03:13:41.134Z,6.60
2019-02-25T03:16:09.453Z,7.20
2019-02-25T03:18:37.813Z,6.70
2019-02-25T03:21:06.131Z,6.70
2019-02-25T03:23:34.468Z,7.07
2019-02-25T03:26:02.804Z,6.80
2019-02-25T03:28:31.097Z,6.70
2019-02-25T03:30:59.486Z,6.23
2019-02-25T03:33:27.792Z,7.00
2019-02-25T03:35:56.144Z,6.90
2019-02-25T03:38:24.486Z,7.57
2019-02-25T03:40:52.852Z,5.72
2019-02-25T03:43:21.215Z,7.70
2019-02-25T03:45:49.561Z,6.40
2019-02-25T03:48:17.883Z,6.00
2019-02-25T03:50:46.204Z,6.08
2019-02-25T03:53:14.521Z,6.05
2019-02-25T03:55:42.950Z,7.00
2019-02-25T03:58:11.943Z,6.43
2019-02-25T04:00:40.258Z,6.47
2019-02-25T04:03:09.911Z,6.97
2019-02-25T04:05:38.373Z,7.23
2019-02-25T04:08:06.745Z,6.53
2019-02-25T04:10:35.352Z,6.67
2019-02-25T04:13:03.748Z,7.20
2019-02-25T04:15:34.055Z,7.70
2019-02-25T04:18:02.469Z,7.25
2019-02-25T04:20:30.826Z,8.40
2019-02-25T04:22:59.221Z,6.63
2019-02-25T04:25:27.514Z,6.30
2019-02-25T04:27:55.852Z,6.37
2019-02-25T04:30:24.256Z,6.87
2019-02-25T04:32:52.633Z,6.70
2019-02-25T04:35:20.973Z,7.05
2019-02-25T04:37:49.369Z,7.17
2019-02-25T04:40:17.787Z,5.50
2019-02-25T04:42:46.129Z,7.10
2019-02-25T04:45:18.035Z,6.55
2019-02-25T04:47:46.377Z,7.17
2019-02-25T04:50:15.393Z,6.67
2019-02-25T04:52:43.854Z,7.50
2019-02-25T04:55:13.906Z,6.57
2019-02-25T04:57:42.458Z,6.50
2019-02-25T05:00:13.175Z,7.13
2019-02-25T05:02:41.554Z,6.75
2019-02-25T05:05:10.181Z,6.40
2019-02-25T05:07:38.527Z,6.33
2019-02-25T05:10:08.491Z,6.50
2019-02-25T05:12:37.117Z,7.03
2019-02-25T05:15:06.743Z,6.90
2019-02-25T05:17:35.930Z,8.57
2019-02-25T05:20:06.502Z,7.85
2019-02-25T05:22:34.851Z,8.35
2019-02-25T05:25:08.990Z,7.85
2019-02-25T05:27:37.312Z,8.13
2019-02-25T05:30:08.972Z,7.33
2019-02-25T05:32:37.391Z,7.10
2019-02-25T05:35:08.054Z,7.53
2019-02-25T05:37:36.384Z,7.30
2019-02-25T05:40:09.315Z,8.27
2019-02-25T05:42:37.737Z,7.63
2019-02-25T05:45:08.150Z,7.50
2019-02-25T05:47:36.838Z,7.17
2019-02-25T05:50:07.885Z,6.77
2019-02-25T05:52:36.221Z,7.80
2019-02-25T05:55:08.003Z,7.53
2019-02-25T05:57:36.958Z,7.22
2019-02-25T06:00:09.695Z,7.17
2019-02-25T06:02:38.035Z,7.50
2019-02-25T06:05:07.414Z,7.03
2019-02-25T06:07:36.111Z,7.80
2019-02-25T06:10:07.153Z,6.50
2019-02-25T06:12:35.509Z,6.53
2019-02-25T06:15:08.828Z,6.85
2019-02-25T06:17:37.170Z,6.73
2019-02-25T06:20:09.446Z,7.80
2019-02-25T06:22:37.797Z,7.37
2019-02-25T06:25:08.611Z,6.23
2019-02-25T06:27:36.987Z,8.40
2019-02-25T06:30:09.420Z,6.97
2019-02-25T06:32:37.725Z,6.70
2019-02-25T06:35:07.700Z,6.40
2019-02-25T06:37:36.018Z,7.08
2019-02-25T06:40:06.947Z,6.90
2019-02-25T06:42:35.310Z,6.63
2019-02-25T06:45:06.194Z,6.70
2019-02-25T06:47:34.958Z,6.70
2019-02-25T06:50:04.430Z,6.30
2019-02-25T06:52:32.777Z,7.37
2019-02-25T06:55:01.137Z,7.77
2019-02-25T06:57:29.550Z,7.83
2019-02-25T06:59:57.860Z,8.27
2019-02-25T07:02:26.255Z,8.45
2019-02-25T07:04:57.123Z,8.00
2019-02-25T07:07:28.776Z,7.53
2019-02-25T07:09:59.350Z,7.70
2019-02-25T07:12:29.778Z,7.03
2019-02-25T07:14:59.446Z,8.25
2019-02-25T07:17:28.160Z,8.40
2019-02-25T07:19:59.155Z,8.20
2019-02-25T07:22:29.599Z,8.57
2019-02-25T07:25:00.415Z,7.80
2019-02-25T07:27:31.123Z,7.80
2019-02-25T07:30:01.804Z,7.43
2019-02-25T07:32:32.964Z,8.10
2019-02-25T07:35:02.642Z,7.92
2019-02-25T07:37:34.606Z,8.57
2019-02-25T07:40:06.694Z,9.73
2019-02-25T07:42:35.980Z,7.80
2019-02-25T07:45:11.738Z,8.10
2019-02-25T07:47:43.902Z,8.50
2019-02-25T07:50:18.173Z,8.80
2019-02-25T07:52:48.477Z,7.37
2019-02-25T07:55:21.589Z,7.80
2019-02-25T07:57:53.855Z,8.27
2019-02-25T08:00:25.858Z,7.87
2019-02-25T08:02:56.982Z,8.40
2019-02-25T08:08:50.070Z,8.07
2019-02-25T08:11:21.886Z,8.53
2019-02-25T08:13:53.174Z,6.93
2019-02-25T08:16:24.405Z,7.90
2019-02-25T08:18:55.609Z,7.10
2019-02-25T08:21:27.270Z,7.67
2019-02-25T08:23:59.041Z,7.37
2019-02-25T08:26:30.487Z,7.00
2019-02-25T08:29:08.419Z,8.27
2019-02-25T08:31:38.156Z,7.60
2019-02-25T08:34:18.159Z,7.97
2019-02-25T08:36:45.844Z,7.90
2019-02-25T08:39:17.040Z,7.67
2019-02-25T08:41:48.080Z,7.40
2019-02-25T08:44:19.333Z,8.33
2019-02-25T08:46:50.580Z,8.20
2019-02-25T08:49:21.886Z,7.27
2019-02-25T08:51:51.572Z,7.47
2019-02-25T08:54:21.220Z,8.58
2019-02-25T08:56:50.872Z,7.78
2019-02-25T08:59:20.637Z,6.97
2019-02-25T09:01:50.333Z,7.67
2019-02-25T09:04:19.865Z,7.47
2019-02-25T09:06:49.504Z,6.80
2019-02-25T09:09:19.111Z,6.65
2019-02-25T09:11:48.699Z,7.23
2019-02-25T09:14:18.256Z,6.20
2019-02-25T09:16:47.580Z,7.03
2019-02-25T09:19:17.323Z,6.80
2019-02-25T09:21:46.911Z,6.30
2019-02-25T09:24:16.440Z,6.37
2019-02-25T09:26:45.991Z,6.93
2019-02-25T09:29:15.440Z,6.27
2019-02-25T09:31:45.041Z,6.70
2019-02-25T09:34:14.472Z,6.87
2019-02-25T09:36:44.012Z,6.92
2019-02-25T09:39:16.693Z,6.85
2019-02-25T09:41:46.682Z,6.87
2019-02-25T09:44:16.192Z,6.40
2019-02-25T09:46:45.823Z,7.70
2019-02-25T09:49:15.268Z,6.60
2019-02-25T09:51:44.906Z,7.83
2019-02-25T09:54:14.397Z,6.73
2019-02-25T09:56:43.977Z,6.13
2019-02-25T09:59:13.454Z,6.43
2019-02-25T10:01:43.204Z,6.70
2019-02-25T10:04:12.746Z,6.30
2019-02-25T10:06:42.239Z,6.47
2019-02-25T10:09:11.820Z,6.47
2019-02-25T10:11:41.534Z,5.83
2019-02-25T10:14:11.144Z,5.90
2019-02-25T10:16:40.778Z,6.77
2019-02-25T10:19:10.355Z,6.50
2019-02-25T10:21:39.883Z,6.40
2019-02-25T10:24:10.216Z,6.27
2019-02-25T10:26:42.752Z,6.97
2019-02-25T10:29:12.294Z,10.25
2019-02-25T10:31:43.713Z,8.13
2019-02-25T10:34:13.041Z,7.60
2019-02-25T10:36:44.079Z,7.37
2019-02-25T10:39:15.532Z,6.10
2019-02-25T10:41:44.951Z,7.27
2019-02-25T10:44:14.401Z,6.57
2019-02-25T10:46:44.959Z,6.87
2019-02-25T10:49:15.493Z,6.37
2019-02-25T10:51:45.638Z,7.13
2019-02-25T10:54:16.916Z,7.67
2019-02-25T10:56:49.814Z,6.80
2019-02-25T10:59:19.562Z,7.20
2019-02-25T11:01:49.010Z,7.53
2019-02-25T11:04:20.026Z,6.70
2019-02-25T11:06:49.959Z,5.67
2019-02-25T11:09:21.402Z,6.50
2019-02-25T11:11:52.771Z,5.60
2019-02-25T11:14:22.432Z,5.30
2019-02-25T11:16:52.978Z,5.20
2019-02-25T11:19:22.770Z,4.67
2019-02-25T11:21:53.200Z,5.10
2019-02-25T11:24:23.368Z,5.07
2019-02-25T11:26:53.596Z,5.10
2019-02-25T11:29:23.126Z,4.33
2019-02-25T11:31:53.563Z,5.70
2019-02-25T11:34:23.766Z,5.03
2019-02-25T11:36:54.890Z,5.17
2019-02-25T11:39:25.295Z,4.80
2019-02-25T11:41:55.505Z,4.97
2019-02-25T11:44:26.154Z,5.00
2019-02-25T11:46:56.228Z,5.28
2019-02-25T11:49:25.775Z,4.40
2019-02-25T11:51:55.351Z,5.90
2019-02-25T11:54:24.853Z,5.00
2019-02-25T11:56:54.319Z,5.00
2019-02-25T11:59:24.409Z,5.17
2019-02-25T12:01:53.875Z,5.17
2019-02-25T12:04:23.340Z,5.90
2019-02-25T12:06:52.878Z,5.30
2019-02-25T12:09:22.428Z,5.43
2019-02-25T12:11:51.989Z,5.37
2019-02-25T12:14:21.482Z,5.10
2019-02-25T12:16:51.148Z,4.83
2019-02-25T12:19:21.595Z,4.70
2019-02-25T12:21:51.113Z,5.13
2019-02-25T12:24:20.760Z,5.03
2019-02-25T12:26:50.353Z,4.83
2019-02-25T12:29:19.865Z,5.20
2019-02-25T12:31:49.460Z,5.00
2019-02-25T12:34:18.913Z,4.53
2019-02-25T12:39:10.010Z,4.73
2019-02-25T12:41:39.670Z,5.30
2019-02-25T12:44:09.437Z,5.20
2019-02-25T12:46:39.701Z,5.28
2019-02-25T12:49:09.735Z,5.10
2019-02-25T12:51:39.399Z,4.80
2019-02-25T12:54:09.093Z,5.05
2019-02-25T12:56:38.657Z,4.97
2019-02-25T12:59:08.483Z,4.60
2019-02-25T13:01:37.951Z,5.07
2019-02-25T13:04:07.796Z,5.30
2019-02-25T13:06:37.273Z,5.50
2019-02-25T13:09:09.955Z,5.17
2019-02-25T13:11:39.975Z,5.10
2019-02-25T13:14:09.841Z,4.72
2019-02-25T13:16:39.451Z,5.20
2019-02-25T13:19:09.024Z,5.20
2019-02-25T13:21:38.515Z,5.40
2019-02-25T13:24:09.905Z,4.90
2019-02-25T13:26:39.640Z,4.37
2019-02-25T13:29:09.400Z,5.37
2019-02-25T13:31:38.870Z,5.07
2019-02-25T13:34:08.621Z,4.65
2019-02-25T13:36:38.179Z,5.43
2019-02-25T13:39:08.484Z,4.70
2019-02-25T13:41:37.948Z,4.97
2019-02-25T13:44:07.646Z,5.00
2019-02-25T13:46:37.111Z,4.67
2019-02-25T13:49:06.998Z,4.70
2019-02-25T13:51:36.173Z,4.80
2019-02-25T13:54:05.809Z,4.40
2019-02-25T13:56:35.332Z,5.80
2019-02-25T13:59:05.046Z,4.77
2019-02-25T14:01:34.642Z,4.93
2019-02-25T14:04:04.261Z,4.80
2019-02-25T14:06:33.744Z,4.90
2019-02-25T14:09:04.845Z,5.00
2019-02-25T14:11:34.381Z,4.87
2019-02-25T14:14:04.116Z,5.50
2019-02-25T14:16:33.733Z,5.20
2019-02-25T14:19:04.733Z,4.85
2019-02-25T14:21:36.339Z,4.83
2019-02-25T14:24:05.706Z,4.60
2019-02-25T14:26:35.160Z,5.50
2019-02-25T14:29:07.106Z,5.37
2019-02-25T14:31:36.822Z,5.33
2019-02-25T14:34:06.563Z,6.47
2019-02-25T14:36:36.523Z,4.63
2019-02-25T14:39:09.169Z,5.17
2019-02-25T14:41:38.780Z,5.37
2019-02-25T14:44:08.459Z,5.40
2019-02-25T14:46:37.934Z,5.05
2019-02-25T14:49:08.300Z,6.03
2019-02-25T14:51:37.853Z,6.07
2019-02-25T14:54:07.847Z,6.73
2019-02-25T14:56:37.481Z,6.13
2019-02-25T14:59:07.856Z,6.83
2019-02-25T15:01:38.537Z,5.30
2019-02-25T15:04:08.177Z,5.47
2019-02-25T15:06:37.783Z,5.20
2019-02-25T15:09:11.897Z,4.97
2019-02-25T15:11:39.725Z,5.67
2019-02-25T15:14:10.687Z,4.30
2019-02-25T15:16:40.797Z,5.30
2019-02-25T15:19:10.354Z,4.60
2019-02-25T15:21:42.999Z,4.80
2019-02-25T15:24:12.640Z,4.10
2019-02-25T15:26:43.314Z,4.57
2019-02-25T15:29:13.031Z,4.45
2019-02-25T15:31:44.403Z,4.37
2019-02-25T15:34:15.050Z,4.80
2019-02-25T15:36:45.095Z,4.10
2019-02-25T15:39:14.694Z,3.72
2019-02-25T15:41:46.291Z,4.60
2019-02-25T15:44:15.585Z,4.50
2019-02-25T15:46:45.062Z,4.10
2019-02-25T15:49:15.140Z,3.70
2019-02-25T15:51:45.759Z,4.17
2019-02-25T15:54:15.398Z,4.70
2019-02-25T15:56:45.010Z,4.23
2019-02-25T15:59:14.542Z,4.30
2019-02-25T16:01:44.635Z,4.77
2019-02-25T16:04:14.171Z,4.17
2019-02-25T16:06:44.193Z,4.42
2019-02-25T16:09:17.080Z,4.60
2019-02-25T16:11:47.447Z,4.90
2019-02-25T16:14:19.129Z,5.10
2019-02-25T16:16:48.665Z,4.58
2019-02-25T16:19:18.219Z,5.13
2019-02-25T16:21:47.422Z,4.23
2019-02-25T16:24:18.599Z,4.63
2019-02-25T16:26:48.824Z,5.08
2019-02-25T16:29:18.367Z,4.77
2019-02-25T16:31:49.049Z,5.30
2019-02-25T16:34:20.631Z,5.03
2019-02-25T16:36:51.947Z,5.10
2019-02-25T16:39:21.534Z,5.33
2019-02-25T16:41:51.222Z,5.20
2019-02-25T16:44:20.830Z,4.60
2019-02-25T16:46:50.852Z,5.40
2019-02-25T16:49:20.578Z,5.08
2019-02-25T16:51:51.010Z,5.05
2019-02-25T16:54:22.929Z,4.60
2019-02-25T16:56:52.834Z,5.35
2019-02-25T16:59:24.442Z,5.03
2019-02-25T17:01:55.844Z,4.77
2019-02-25T17:07:40.502Z,5.87
2019-02-25T17:10:13.508Z,5.57
2019-02-25T17:12:43.776Z,4.90
2019-02-25T17:15:17.420Z,5.03
2019-02-25T17:17:46.941Z,5.90
2019-02-25T17:20:17.485Z,5.70
2019-02-25T17:22:47.292Z,5.80
2019-02-25T17:25:17.212Z,5.00
2019-02-25T17:27:46.940Z,5.20
2019-02-25T17:30:20.196Z,5.80
2019-02-25T17:32:50.950Z,4.72
2019-02-25T17:35:23.574Z,5.57
2019-02-25T17:37:53.359Z,5.87
2019-02-25T17:40:23.975Z,5.47
2019-02-25T17:42:54.535Z,5.20
2019-02-25T17:45:27.704Z,5.00
2019-02-25T17:47:58.810Z,4.90
2019-02-25T17:50:30.649Z,4.93
2019-02-25T17:53:01.519Z,4.97
2019-02-25T17:55:34.492Z,5.08
2019-02-25T17:58:03.762Z,5.00
2019-02-25T18:00:37.427Z,4.80
2019-02-25T18:03:07.421Z,5.03
2019-02-25T18:05:38.761Z,3.90
2019-02-25T18:08:10.579Z,4.65
2019-02-25T18:10:43.108Z,3.90
2019-02-25T18:13:12.833Z,3.77
2019-02-25T18:15:42.765Z,4.23
2019-02-25T18:18:15.159Z,4.07
2019-02-25T18:20:43.995Z,4.12
2019-02-25T18:23:14.391Z,4.10
2019-02-25T18:25:44.329Z,3.97
2019-02-25T18:28:15.181Z,4.17
2019-02-25T18:30:45.527Z,3.70
2019-02-25T18:33:17.246Z,4.00
2019-02-25T18:36:08.840Z,4.30
2019-02-25T18:38:38.597Z,3.77
2019-02-25T18:41:09.245Z,3.80
2019-02-25T18:43:38.901Z,4.23
2019-02-25T18:46:08.181Z,4.20
2019-02-25T18:48:37.749Z,4.40
2019-02-25T18:51:07.264Z,4.05
2019-02-25T18:53:36.834Z,3.50
2019-02-25T18:56:06.520Z,4.47
2019-02-25T18:58:37.475Z,4.30
2019-02-25T19:01:09.698Z,5.10
2019-02-25T19:03:39.236Z,4.87
2019-02-25T19:08:59.039Z,4.57
2019-02-25T19:11:28.642Z,4.53
2019-02-25T19:14:01.844Z,5.23
2019-02-25T19:16:29.862Z,5.42
2019-02-25T19:19:03.622Z,5.20
2019-02-25T19:21:31.922Z,5.13
2019-02-25T19:24:03.590Z,5.30
2019-02-25T19:26:33.733Z,5.50
2019-02-25T19:29:03.268Z,4.20
2019-02-25T19:31:32.821Z,4.73
2019-02-25T19:34:02.409Z,6.87
2019-02-25T19:36:34.317Z,5.00
2019-02-25T19:39:07.287Z,4.80
2019-02-25T19:41:35.903Z,5.40
2019-02-25T19:44:05.994Z,5.07
2019-02-25T19:46:37.021Z,5.97
2019-02-25T19:49:06.809Z,6.35
2019-02-25T19:51:36.493Z,6.37
2019-02-25T19:54:07.070Z,4.90
2019-02-25T19:56:37.476Z,5.00
2019-02-25T19:59:07.982Z,5.60
2019-02-25T20:01:57.924Z,8.00
2019-02-25T20:04:29.203Z,9.47
2019-02-25T20:06:59.092Z,8.73
2019-02-25T20:09:30.146Z,8.83
2019-02-25T20:12:01.820Z,12.53
2019-02-25T20:14:31.450Z,10.87
2019-02-25T20:17:02.686Z,10.07
2019-02-25T20:19:32.377Z,10.00
2019-02-25T20:22:02.003Z,9.83
2019-02-25T20:24:31.550Z,10.40
2019-02-25T20:27:02.543Z,10.10
2019-02-25T20:29:33.883Z,10.23
2019-02-25T20:32:05.275Z,9.67
2019-02-25T20:34:34.908Z,10.23
2019-02-25T20:37:04.536Z,10.70
2019-02-25T20:39:35.814Z,10.23
2019-02-25T20:42:05.256Z,10.70
2019-02-25T20:44:35.014Z,11.33
2019-02-25T20:47:04.733Z,11.10
2019-02-25T20:49:34.227Z,10.20
2019-02-25T20:52:03.781Z,11.87
2019-02-25T20:54:37.810Z,10.70
2019-02-25T20:57:04.628Z,10.47
2019-02-25T20:59:34.901Z,10.20
2019-02-25T21:02:09.658Z,11.10
2019-02-25T21:04:36.737Z,11.00
2019-02-25T21:07:08.866Z,10.40
2019-02-25T21:09:40.509Z,10.43
2019-02-25T21:12:12.689Z,11.23
2019-02-25T21:14:44.965Z,9.35
2019-02-25T21:17:14.748Z,10.67
2019-02-25T21:19:44.424Z,10.27
2019-02-25T21:22:13.959Z,9.93
2019-02-25T21:24:43.425Z,10.27
2019-02-25T21:27:13.073Z,9.40
2019-02-25T21:29:42.754Z,9.60
2019-02-25T21:32:15.065Z,9.87
2019-02-25T21:34:46.209Z,10.47
2019-02-25T21:37:15.096Z,10.07
2019-02-25T21:39:44.687Z,9.60
2019-02-25T21:42:15.358Z,9.83
2019-02-25T21:44:46.449Z,9.37
2019-02-25T21:47:20.205Z,10.17
2019-02-25T21:49:47.884Z,10.98
2019-02-25T21:52:17.576Z,9.27
2019-02-25T21:54:47.239Z,10.50
2019-02-25T21:57:16.680Z,10.70
2019-02-25T21:59:46.213Z,10.43
2019-02-25T22:02:15.660Z,9.90
2019-02-25T22:04:47.289Z,10.47
2019-02-25T22:07:20.050Z,9.30
2019-02-25T22:09:47.477Z,11.30
2019-02-25T22:12:16.939Z,11.10
2019-02-25T22:14:47.706Z,10.37
2019-02-25T22:17:20.056Z,10.77
2019-02-25T22:19:50.231Z,9.67
2019-02-25T22:22:24.099Z,9.57
2019-02-25T22:24:52.061Z,10.13
2019-02-25T22:27:23.089Z,9.78
2019-02-25T22:29:52.712Z,9.47
2019-02-25T22:32:22.286Z,9.93
2019-02-25T22:34:51.916Z,11.35
2019-02-25T22:37:22.739Z,9.37
2019-02-25T22:39:54.530Z,9.93
2019-02-25T22:42:43.582Z,9.97
2019-02-25T22:45:18.795Z,10.60
2019-02-25T22:47:48.487Z,10.58
2019-02-25T22:50:18.106Z,10.77
2019-02-25T22:52:51.317Z,11.10
2019-02-25T22:55:22.148Z,11.25
2019-02-25T22:57:51.903Z,10.30
2019-02-25T23:01:01.308Z,9.73
2019-02-25T23:03:30.842Z,10.67
2019-02-25T23:06:23.080Z,9.57
2019-02-25T23:09:14.349Z,11.10
2019-02-25T23:12:02.879Z,10.75
2019-02-25T23:14:34.157Z,11.37
2019-02-25T23:17:06.455Z,11.30
2019-02-25T23:19:54.618Z,11.30
2019-02-25T23:22:24.103Z,10.90
2019-02-25T23:24:53.665Z,10.80
2019-02-25T23:27:23.153Z,11.17
2019-02-25T23:29:53.686Z,11.03
2019-02-25T23:32:23.339Z,10.53
2019-02-25T23:34:55.298Z,11.15
2019-02-25T23:37:25.734Z,10.20
2019-02-25T23:39:54.992Z,10.13
2019-02-25T23:42:24.624Z,11.30
2019-02-25T23:44:53.946Z,9.90
2019-02-25T23:47:26.903Z,10.00
2019-02-25T23:49:54.788Z,9.93
2019-02-25T23:52:25.700Z,10.70
2019-02-25T23:54:56.477Z,11.60
2019-02-25T23:57:28.286Z,10.10
2019-02-25T23:59:57.836Z,11.00
